Time;durP1;ratioP1;P1;durP2;ratioP2;P2;SDS_P1;SDS_P2;PMS_P1;PMS_P2;Temp;Humidity;BMP_temperature;BMP_pressure;BME280_temperature;BME280_humidity;BME280_pressure;Samples;Min_cycle;Max_cycle;Signal;HPM_P1;HPM_P2
2022/10/09 00:01:54;;;;;;;12.43;3.67;;;8.40;99.90;;;;;;5068266;28;20048;-70
2022/10/09 00:04:20;;;;;;;9.07;4.00;;;8.40;99.90;;;;;;5048982;28;20048;-70
2022/10/09 00:06:45;;;;;;;14.33;4.10;;;8.40;99.90;;;;;;5052715;28;20048;-70
2022/10/09 00:09:13;;;;;;;14.10;4.03;;;8.40;99.90;;;;;;5038306;28;20044;-70
2022/10/09 00:11:38;;;;;;;17.27;3.87;;;8.40;99.90;;;;;;5065507;28;20086;-70
2022/10/09 00:14:04;;;;;;;16.47;4.27;;;8.50;99.90;;;;;;5068471;28;20074;-70
2022/10/09 00:16:30;;;;;;;14.27;3.57;;;8.40;99.90;;;;;;5058755;28;20127;-70
2022/10/09 00:18:56;;;;;;;12.53;4.20;;;8.50;99.90;;;;;;5048298;28;20079;-70
2022/10/09 00:21:24;;;;;;;19.37;4.33;;;8.40;99.90;;;;;;5051182;28;20159;-70
2022/10/09 00:23:52;;;;;;;16.43;3.93;;;8.40;99.90;;;;;;5066746;28;20047;-70
2022/10/09 00:26:18;;;;;;;18.73;3.93;;;8.50;99.90;;;;;;5050689;28;20029;-70
2022/10/09 00:28:45;;;;;;;10.47;3.67;;;8.40;99.90;;;;;;5078267;28;20130;-70
2022/10/09 00:31:11;;;;;;;13.37;3.77;;;8.40;99.90;;;;;;5071071;28;20051;-70
2022/10/09 00:33:37;;;;;;;11.17;4.10;;;8.30;99.90;;;;;;5086065;28;20494;-70
2022/10/09 00:36:12;;;;;;;14.40;3.57;;;8.40;99.90;;;;;;5070819;28;20048;-70
2022/10/09 00:38:38;;;;;;;16.87;4.10;;;8.30;99.90;;;;;;5080814;28;20040;-70
2022/10/09 00:41:04;;;;;;;10.47;4.07;;;8.30;99.90;;;;;;5088082;28;20495;-70
2022/10/09 00:43:41;;;;;;;13.77;4.27;;;8.30;99.90;;;;;;5075621;28;20055;-70
2022/10/09 00:46:34;;;;;;;13.50;3.77;;;8.30;99.90;;;;;;5076198;28;20102;-70
2022/10/09 00:49:12;;;;;;;14.93;3.93;;;8.20;99.90;;;;;;5046177;28;20167;-70
2022/10/09 00:51:39;;;;;;;15.60;4.10;;;8.30;99.90;;;;;;5066539;28;20090;-70
2022/10/09 00:54:08;;;;;;;16.93;4.60;;;8.20;99.90;;;;;;5033196;28;20045;-70
2022/10/09 00:56:34;;;;;;;14.53;4.43;;;8.20;99.90;;;;;;5053168;28;20049;-70
2022/10/09 00:59:01;;;;;;;19.60;5.13;;;8.20;99.90;;;;;;5047701;28;20114;-70
2022/10/09 01:01:27;;;;;;;17.47;4.80;;;8.20;99.90;;;;;;5033771;28;20052;-70
2022/10/09 01:03:53;;;;;;;12.63;4.20;;;8.10;99.90;;;;;;5065791;28;20044;-70
2022/10/09 01:06:46;;;;;;;15.37;4.20;;;8.00;99.90;;;;;;5056212;28;20411;-70
2022/10/09 01:09:13;;;;;;;13.27;4.50;;;8.00;99.90;;;;;;5065394;28;20052;-70
2022/10/09 01:11:45;;;;;;;12.80;4.13;;;7.90;99.90;;;;;;5068001;28;20048;-70
2022/10/09 01:14:24;;;;;;;;;;;7.90;99.90;;;;;;5061814;28;21385;-70
2022/10/09 01:17:13;;;;;;;19.70;4.77;;;7.90;99.90;;;;;;5051521;28;20530;-70
2022/10/09 01:20:09;;;;;;;18.47;5.17;;;7.80;99.90;;;;;;5036925;28;20483;-70
2022/10/09 01:22:53;;;;;;;14.30;5.13;;;7.80;99.90;;;;;;5064589;28;20049;-70
2022/10/09 01:25:33;;;;;;;18.10;5.00;;;7.80;99.90;;;;;;5066114;28;20048;-70
2022/10/09 01:28:01;;;;;;;15.10;5.17;;;7.70;99.90;;;;;;5048508;28;20056;-70
2022/10/09 01:30:28;;;;;;;16.67;5.00;;;7.70;99.90;;;;;;5066151;28;20083;-70
2022/10/09 01:32:54;;;;;;;17.27;5.40;;;7.70;99.90;;;;;;5066227;28;20534;-70
2022/10/09 01:35:21;;;;;;;17.53;4.93;;;7.70;99.90;;;;;;5049221;28;20137;-70
2022/10/09 01:37:49;;;;;;;17.40;5.00;;;7.70;99.90;;;;;;5050786;28;20049;-71
2022/10/09 01:40:17;;;;;;;21.37;5.93;;;7.60;99.90;;;;;;5049874;28;20841;-70
2022/10/09 01:42:43;;;;;;;17.30;5.87;;;7.60;99.90;;;;;;5062401;28;20044;-70
2022/10/09 01:45:09;;;;;;;15.03;5.30;;;7.60;99.90;;;;;;5046214;28;20045;-70
2022/10/09 01:47:36;;;;;;;16.60;4.93;;;7.60;99.90;;;;;;5030841;28;20048;-70
2022/10/09 01:50:26;;;;;;;12.93;5.03;;;7.70;99.90;;;;;;5062867;28;20135;-70
2022/10/09 01:53:06;;;;;;;13.40;4.57;;;7.50;99.90;;;;;;5048510;28;20419;-70
2022/10/09 01:55:38;;;;;;;19.77;4.93;;;7.60;99.90;;;;;;5065850;28;20087;-70
2022/10/09 01:58:06;;;;;;;14.00;5.27;;;7.60;99.90;;;;;;5049291;28;20135;-70
2022/10/09 02:00:36;;;;;;;15.13;5.40;;;7.50;99.90;;;;;;5065985;28;20040;-70
2022/10/09 02:03:05;;;;;;;16.50;5.90;;;7.40;99.90;;;;;;5044932;28;20408;-70
2022/10/09 02:05:31;;;;;;;13.90;5.40;;;7.50;99.90;;;;;;5065951;28;20047;-70
2022/10/09 02:07:58;;;;;;;13.83;5.37;;;7.40;99.90;;;;;;5045017;28;20806;-70
2022/10/09 02:10:24;;;;;;;16.77;5.27;;;7.40;99.90;;;;;;5069271;28;20040;-70
2022/10/09 02:12:54;;;;;;;13.53;5.47;;;7.40;99.90;;;;;;5077216;28;20051;-70
2022/10/09 02:15:22;;;;;;;17.77;5.63;;;7.40;99.90;;;;;;5079824;28;20495;-70
2022/10/09 02:17:50;;;;;;;19.80;5.93;;;7.40;99.90;;;;;;5016663;28;20503;-71
2022/10/09 02:20:29;;;;;;;15.73;5.90;;;7.40;99.90;;;;;;5049776;28;20402;-70
2022/10/09 02:22:57;;;;;;;17.70;5.57;;;7.40;99.90;;;;;;5065884;28;20048;-70
2022/10/09 02:25:23;;;;;;;15.43;5.87;;;7.50;99.90;;;;;;5069667;28;20130;-70
2022/10/09 02:27:49;;;;;;;20.23;6.43;;;7.40;99.90;;;;;;5045146;28;20460;-70
2022/10/09 02:30:16;;;;;;;13.57;6.27;;;7.60;99.90;;;;;;5088322;28;20123;-70
2022/10/09 02:32:42;;;;;;;18.10;5.70;;;7.40;99.90;;;;;;5052808;28;20244;-70
2022/10/09 02:35:08;;;;;;;17.43;5.93;;;7.40;99.90;;;;;;5070790;28;20495;-70
2022/10/09 02:37:34;;;;;;;17.70;5.90;;;7.20;99.90;;;;;;5062674;28;20051;-71
2022/10/09 02:39:59;;;;;;;16.97;5.40;;;7.30;99.90;;;;;;5089795;28;20117;-70
2022/10/09 02:42:25;;;;;;;17.77;5.73;;;7.30;99.90;;;;;;5081270;28;20763;-70
2022/10/09 02:44:51;;;;;;;15.30;5.70;;;7.30;99.90;;;;;;5068643;28;20091;-70
2022/10/09 02:47:17;;;;;;;17.73;5.77;;;7.30;99.90;;;;;;5053229;28;20537;-70
2022/10/09 02:49:42;;;;;;;18.27;5.53;;;7.10;99.90;;;;;;5068733;28;20050;-70
2022/10/09 02:52:08;;;;;;;22.60;6.07;;;7.20;99.90;;;;;;5051911;28;20044;-70
2022/10/09 02:54:34;;;;;;;20.23;6.07;;;7.20;99.90;;;;;;5052556;28;20041;-70
2022/10/09 02:57:00;;;;;;;15.20;5.17;;;7.20;99.90;;;;;;5036963;28;20052;-71
2022/10/09 02:59:25;;;;;;;17.17;5.90;;;7.20;99.90;;;;;;5068276;28;20059;-70
2022/10/09 03:01:51;;;;;;;17.70;5.90;;;7.10;99.90;;;;;;5069043;28;20054;-70
2022/10/09 03:04:17;;;;;;;12.80;6.20;;;7.00;99.90;;;;;;5034974;28;20040;-70
2022/10/09 03:06:43;;;;;;;15.83;5.70;;;7.10;99.90;;;;;;5038719;28;20415;-70
2022/10/09 03:09:08;;;;;;;15.23;6.07;;;7.00;99.90;;;;;;5066694;28;20056;-70
2022/10/09 03:11:34;;;;;;;18.63;6.10;;;6.90;99.90;;;;;;5068902;28;20036;-70
2022/10/09 03:13:59;;;;;;;15.93;6.17;;;7.00;99.90;;;;;;5083016;28;20403;-70
2022/10/09 03:16:26;;;;;;;20.60;6.07;;;7.10;99.90;;;;;;5044267;28;20520;-70
2022/10/09 03:18:52;;;;;;;13.90;6.63;;;7.00;99.90;;;;;;5064756;28;20041;-70
2022/10/09 03:21:24;;;;;;;15.53;6.77;;;7.00;99.90;;;;;;5068851;28;20060;-70
2022/10/09 03:23:50;;;;;;;;;;;6.90;99.90;;;;;;5051725;28;20044;-70
2022/10/09 03:26:19;;;;;;;15.47;6.70;;;6.80;99.90;;;;;;5059348;28;19931;-70
2022/10/09 03:28:47;;;;;;;18.33;6.97;;;6.90;99.90;;;;;;5080889;28;20898;-70
2022/10/09 03:31:18;;;;;;;21.03;6.70;;;6.90;99.90;;;;;;5090313;28;20040;-70
2022/10/09 03:33:44;;;;;;;16.05;6.47;;;6.90;99.90;;;;;;5070525;28;20575;-71
2022/10/09 03:36:11;;;;;;;14.37;6.93;;;6.80;99.90;;;;;;5081556;28;20051;-70
2022/10/09 03:38:37;;;;;;;15.57;6.50;;;6.90;99.90;;;;;;5063896;28;20048;-70
2022/10/09 03:41:04;;;;;;;17.00;6.77;;;6.80;99.90;;;;;;5088922;28;20048;-70
2022/10/09 03:43:30;;;;;;;17.10;6.73;;;6.70;99.90;;;;;;5076834;28;20404;-70
2022/10/09 03:45:56;;;;;;;17.83;7.30;;;6.70;99.90;;;;;;5078827;28;20053;-70
2022/10/09 03:48:22;;;;;;;20.77;6.77;;;6.80;99.90;;;;;;5068424;28;20036;-70
2022/10/09 03:50:48;;;;;;;21.10;7.20;;;6.90;99.90;;;;;;5088741;28;20048;-70
2022/10/09 03:53:15;;;;;;;19.10;8.17;;;6.60;99.90;;;;;;5087466;28;20189;-70
2022/10/09 03:55:41;;;;;;;25.87;8.40;;;6.70;99.90;;;;;;5088459;28;20048;-70
2022/10/09 03:58:08;;;;;;;31.60;15.43;;;6.80;99.90;;;;;;5054672;28;20123;-70
2022/10/09 04:00:34;;;;;;;37.83;19.60;;;6.70;99.90;;;;;;5060732;28;20143;-70
2022/10/09 04:02:59;;;;;;;27.53;13.87;;;6.90;99.90;;;;;;5065606;28;20044;-70
2022/10/09 04:05:25;;;;;;;37.47;16.00;;;6.70;99.90;;;;;;5068088;28;20044;-70
2022/10/09 04:07:51;;;;;;;33.70;17.37;;;6.70;99.90;;;;;;5034422;28;20044;-70
2022/10/09 04:10:16;;;;;;;71.73;38.13;;;6.70;99.90;;;;;;5034749;28;20045;-70
2022/10/09 04:12:42;;;;;;;31.07;17.27;;;6.60;99.90;;;;;;5050285;28;20117;-70
2022/10/09 04:15:09;;;;;;;31.80;14.70;;;6.80;99.90;;;;;;5078114;28;20044;-70
2022/10/09 04:17:34;;;;;;;92.70;47.33;;;6.70;99.90;;;;;;5042452;28;20048;-70
2022/10/09 04:20:00;;;;;;;55.07;25.70;;;6.70;99.90;;;;;;5078335;28;20055;-70
2022/10/09 04:22:26;;;;;;;66.17;37.30;;;6.70;99.90;;;;;;5075746;28;20132;-70
2022/10/09 04:24:52;;;;;;;36.27;17.80;;;6.80;99.90;;;;;;5075376;28;20048;-70
2022/10/09 04:27:18;;;;;;;68.10;40.00;;;6.60;99.90;;;;;;5042641;28;20097;-70
2022/10/09 04:29:44;;;;;;;34.43;17.43;;;6.70;99.90;;;;;;5086079;28;20054;-70
2022/10/09 04:32:10;;;;;;;37.87;18.23;;;6.70;99.90;;;;;;5086834;28;20058;-70
2022/10/09 04:34:35;;;;;;;30.37;17.03;;;6.80;99.90;;;;;;5088834;28;20062;-70
2022/10/09 04:37:01;;;;;;;47.27;23.53;;;6.80;99.90;;;;;;5068524;28;20074;-69
2022/10/09 04:39:26;;;;;;;36.63;19.23;;;6.60;99.90;;;;;;5066950;28;20036;-70
2022/10/09 04:41:52;;;;;;;33.33;17.07;;;6.60;99.90;;;;;;5049421;28;20102;-70
2022/10/09 04:44:18;;;;;;;22.03;10.97;;;6.60;99.90;;;;;;5074478;28;20032;-70
2022/10/09 04:46:44;;;;;;;17.60;9.00;;;6.60;99.90;;;;;;5056012;28;20135;-70
2022/10/09 04:49:13;;;;;;;19.37;9.07;;;6.50;99.90;;;;;;5057052;28;20098;-70
2022/10/09 04:51:39;;;;;;;23.47;7.93;;;6.50;99.90;;;;;;5062887;28;20376;-70
2022/10/09 04:54:05;;;;;;;26.57;10.13;;;6.40;99.90;;;;;;5065334;28;20522;-70
2022/10/09 04:56:31;;;;;;;15.73;8.13;;;6.50;99.90;;;;;;5051942;28;20044;-70
2022/10/09 04:58:56;;;;;;;10.90;6.83;;;6.40;99.90;;;;;;5062989;28;20115;-70
2022/10/09 05:01:25;;;;;;;10.97;6.23;;;6.30;99.90;;;;;;5065097;28;20045;-70
2022/10/09 05:03:51;;;;;;;12.40;4.63;;;6.20;99.90;;;;;;5061206;28;20511;-70
2022/10/09 05:06:18;;;;;;;16.60;7.53;;;6.00;99.90;;;;;;5054041;28;20080;-70
2022/10/09 05:08:44;;;;;;;19.70;10.43;;;6.00;99.90;;;;;;5050793;28;20855;-70
2022/10/09 05:11:16;;;;;;;26.00;11.63;;;6.20;99.90;;;;;;5064377;28;20041;-70
2022/10/09 05:13:44;;;;;;;;;;;6.30;99.90;;;;;;5058700;28;20123;-70
2022/10/09 05:16:16;;;;;;;28.13;12.37;;;6.40;99.90;;;;;;5058062;28;20002;-70
2022/10/09 05:18:44;;;;;;;23.07;13.37;;;6.40;99.90;;;;;;5058755;28;20055;-70
2022/10/09 05:21:10;;;;;;;28.80;13.23;;;6.50;99.90;;;;;;5064986;28;20645;-70
2022/10/09 05:23:35;;;;;;;29.47;13.03;;;6.40;99.90;;;;;;5062556;28;20128;-70
2022/10/09 05:26:05;;;;;;;32.07;13.67;;;6.60;99.90;;;;;;5061920;28;20757;-70
2022/10/09 05:28:31;;;;;;;33.00;14.60;;;6.50;99.90;;;;;;5051437;28;20136;-70
2022/10/09 05:30:57;;;;;;;34.47;14.47;;;6.60;99.90;;;;;;5066033;28;20044;-70
2022/10/09 05:33:23;;;;;;;32.57;15.50;;;6.50;99.90;;;;;;5053083;28;20049;-70
2022/10/09 05:35:53;;;;;;;28.57;14.33;;;6.50;99.90;;;;;;5065670;28;20048;-70
2022/10/09 05:38:20;;;;;;;25.50;13.73;;;6.40;99.90;;;;;;5048640;28;20124;-70
2022/10/09 05:40:51;;;;;;;29.07;14.17;;;6.50;99.90;;;;;;5064350;28;20036;-70
2022/10/09 05:43:17;;;;;;;27.08;14.32;;;6.50;99.90;;;;;;5060210;28;20040;-70
2022/10/09 05:45:42;;;;;;;32.23;13.73;;;6.50;99.90;;;;;;5064265;28;20039;-70
2022/10/09 05:48:08;;;;;;;26.30;12.93;;;6.60;99.90;;;;;;5044893;28;20475;-70
2022/10/09 05:50:33;;;;;;;25.27;12.80;;;6.40;99.90;;;;;;5046685;28;20475;-70
2022/10/09 05:52:59;;;;;;;23.07;13.00;;;6.30;99.90;;;;;;5060763;28;20090;-70
2022/10/09 05:55:26;;;;;;;22.13;12.43;;;6.50;99.90;;;;;;5064874;28;20041;-70
2022/10/09 05:57:54;;;;;;;22.37;10.53;;;6.40;99.90;;;;;;5047350;28;20053;-70
2022/10/09 06:00:20;;;;;;;17.40;8.27;;;6.30;99.90;;;;;;5066739;28;20036;-70
2022/10/09 06:02:45;;;;;;;7.80;4.70;;;6.10;99.90;;;;;;5064196;28;20109;-70
2022/10/09 06:05:11;;;;;;;9.27;3.80;;;5.70;99.90;;;;;;5034079;28;20054;-70
2022/10/09 06:07:37;;;;;;;5.57;3.60;;;5.50;99.90;;;;;;5041210;28;20044;-70
2022/10/09 06:10:04;;;;;;;5.10;3.67;;;5.40;99.90;;;;;;5046446;28;20049;-70
2022/10/09 06:12:29;;;;;;;8.90;4.47;;;5.30;99.90;;;;;;5063701;28;20048;-70
2022/10/09 06:14:55;;;;;;;7.13;4.07;;;5.20;99.90;;;;;;5066046;28;20406;-70
2022/10/09 06:17:20;;;;;;;7.17;3.70;;;5.30;99.90;;;;;;5040313;28;20045;-70
2022/10/09 06:19:46;;;;;;;6.97;3.80;;;5.10;99.90;;;;;;5061404;28;20052;-70
2022/10/09 06:22:12;;;;;;;5.53;3.53;;;5.10;99.90;;;;;;5060909;28;20048;-70
2022/10/09 06:24:37;;;;;;;8.00;4.30;;;5.10;99.90;;;;;;5065956;28;20032;-70
2022/10/09 06:27:03;;;;;;;16.20;7.90;;;5.10;99.90;;;;;;5048073;28;20907;-70
2022/10/09 06:29:29;;;;;;;8.53;5.77;;;5.50;99.90;;;;;;5061631;28;20041;-70
2022/10/09 06:31:55;;;;;;;16.43;8.07;;;5.50;99.90;;;;;;5066884;28;20056;-70
2022/10/09 06:34:21;;;;;;;19.67;11.53;;;5.50;99.90;;;;;;5065876;28;20044;-70
2022/10/09 06:36:47;;;;;;;25.40;11.67;;;5.90;99.90;;;;;;5032420;28;20118;-70
2022/10/09 06:39:13;;;;;;;22.77;11.13;;;6.10;99.90;;;;;;5065767;28;20056;-70
2022/10/09 06:41:39;;;;;;;19.27;11.03;;;6.00;99.90;;;;;;5064533;28;20128;-70
2022/10/09 06:44:09;;;;;;;20.07;11.00;;;6.10;99.90;;;;;;5062160;28;20320;-70
2022/10/09 06:46:38;;;;;;;23.50;11.37;;;6.10;99.90;;;;;;5049858;28;20044;-70
2022/10/09 06:49:04;;;;;;;21.93;10.77;;;6.30;99.90;;;;;;5057702;28;20059;-70
2022/10/09 06:51:31;;;;;;;22.40;10.90;;;6.20;99.90;;;;;;5064040;28;20491;-70
2022/10/09 06:54:00;;;;;;;23.93;9.93;;;6.30;99.90;;;;;;5048116;28;20459;-70
2022/10/09 06:56:28;;;;;;;23.27;10.70;;;6.30;99.90;;;;;;5053649;28;20496;-70
2022/10/09 06:58:54;;;;;;;21.17;10.77;;;6.30;99.90;;;;;;5060176;28;20056;-70
2022/10/09 07:01:31;;;;;;;18.57;10.50;;;6.40;99.90;;;;;;5063984;28;20459;-70
2022/10/09 07:04:09;;;;;;;20.93;11.53;;;6.50;99.90;;;;;;5064317;28;20052;-70
2022/10/09 07:06:40;;;;;;;19.07;9.87;;;6.60;99.90;;;;;;5033518;28;20040;-70
2022/10/09 07:09:09;;;;;;;20.77;10.70;;;6.70;99.90;;;;;;5061564;28;20047;-70
2022/10/09 07:11:36;;;;;;;22.03;10.33;;;6.90;99.90;;;;;;5061746;28;20509;-70
2022/10/09 07:14:05;;;;;;;21.30;10.40;;;7.00;99.90;;;;;;5063877;28;20049;-70
2022/10/09 07:16:33;;;;;;;19.40;9.73;;;7.00;99.90;;;;;;5037985;28;20142;-70
2022/10/09 07:19:06;;;;;;;16.63;9.43;;;7.00;99.90;;;;;;5060702;28;20051;-70
2022/10/09 07:21:32;;;;;;;17.53;9.40;;;7.00;99.90;;;;;;5063608;28;20079;-70
2022/10/09 07:24:03;;;;;;;21.33;10.67;;;7.10;99.90;;;;;;5048130;28;20040;-70
2022/10/09 07:26:31;;;;;;;19.95;10.35;;;7.10;99.90;;;;;;5050371;28;20612;-70
2022/10/09 07:28:56;;;;;;;17.70;9.53;;;7.20;99.90;;;;;;5058522;28;20129;-70
2022/10/09 07:31:22;;;;;;;17.57;9.77;;;7.30;99.90;;;;;;5054192;28;20044;-70
2022/10/09 07:33:50;;;;;;;18.10;10.27;;;7.40;99.90;;;;;;5062626;28;20075;-71
2022/10/09 07:36:16;;;;;;;24.93;10.60;;;7.50;99.90;;;;;;5055165;28;20063;-70
2022/10/09 07:38:42;;;;;;;18.10;10.30;;;7.60;99.90;;;;;;5061077;28;20036;-70
2022/10/09 07:41:10;;;;;;;19.77;9.87;;;7.70;99.90;;;;;;5077125;28;20044;-70
2022/10/09 07:43:38;;;;;;;13.97;8.77;;;7.80;99.90;;;;;;5061108;28;20403;-70
2022/10/09 07:46:06;;;;;;;18.40;9.07;;;7.90;99.90;;;;;;5061403;28;20499;-70
2022/10/09 07:48:34;;;;;;;20.17;9.30;;;8.10;99.90;;;;;;5039989;28;20570;-70
2022/10/09 07:51:27;;;;;;;19.13;8.80;;;8.20;99.90;;;;;;5068801;28;20101;-70
2022/10/09 07:53:53;;;;;;;15.07;7.73;;;8.40;99.90;;;;;;5059206;28;20496;-70
2022/10/09 07:56:24;;;;;;;17.43;7.57;;;8.50;99.90;;;;;;5055222;28;20044;-70
2022/10/09 07:58:52;;;;;;;16.88;8.07;;;8.50;99.90;;;;;;5059017;28;20139;-70
2022/10/09 08:01:19;;;;;;;17.83;8.80;;;8.60;99.90;;;;;;5067044;28;20522;-70
2022/10/09 08:03:44;;;;;;;14.83;8.10;;;8.80;99.90;;;;;;5057624;28;20059;-70
2022/10/09 08:06:10;;;;;;;17.70;9.10;;;8.90;99.90;;;;;;5064092;28;20048;-70
2022/10/09 08:08:36;;;;;;;20.50;9.20;;;8.80;99.90;;;;;;5045048;28;20425;-70
2022/10/09 08:11:13;;;;;;;18.83;8.13;;;9.00;99.90;;;;;;5064013;28;20060;-70
2022/10/09 08:13:40;;;;;;;17.47;8.00;;;9.30;99.90;;;;;;5060621;28;20044;-70
2022/10/09 08:16:07;;;;;;;17.80;8.37;;;9.30;99.90;;;;;;5064847;28;20052;-70
2022/10/09 08:18:32;;;;;;;17.90;9.23;;;9.50;99.90;;;;;;5043029;28;20045;-71
2022/10/09 08:21:00;;;;;;;18.30;8.93;;;9.50;99.90;;;;;;5066731;28;20501;-70
2022/10/09 08:23:26;;;;;;;13.00;7.20;;;9.60;99.90;;;;;;5075211;28;20064;-70
2022/10/09 08:25:52;;;;;;;19.27;8.90;;;9.60;99.90;;;;;;5066851;28;20044;-70
2022/10/09 08:28:18;;;;;;;13.17;7.67;;;9.70;99.90;;;;;;5047573;28;20049;-70
2022/10/09 08:30:44;;;;;;;14.17;7.17;;;9.90;99.90;;;;;;5067855;28;20045;-70
2022/10/09 08:33:09;;;;;;;17.63;6.97;;;10.10;99.90;;;;;;5064627;28;20510;-70
2022/10/09 08:35:35;;;;;;;18.07;6.93;;;10.10;99.90;;;;;;5068223;28;20103;-70
2022/10/09 08:38:01;;;;;;;14.80;6.70;;;10.20;99.90;;;;;;5050631;28;20040;-70
2022/10/09 08:40:37;;;;;;;15.73;7.00;;;10.10;99.90;;;;;;5068360;28;20505;-70
2022/10/09 08:43:05;;;;;;;15.63;6.53;;;10.40;99.90;;;;;;5055770;28;20048;-70
2022/10/09 08:45:33;;;;;;;14.57;6.60;;;10.50;99.90;;;;;;5067718;28;20108;-70
2022/10/09 08:48:17;;;;;;;13.02;6.30;;;10.50;99.90;;;;;;5049870;28;20105;-70
2022/10/09 08:50:48;;;;;;;12.77;6.45;;;10.60;99.90;;;;;;5065358;28;20052;-70
2022/10/09 08:53:36;;;;;;;13.15;6.20;;;10.70;99.90;;;;;;5056104;28;20040;-71
2022/10/09 08:56:04;;;;;;;11.63;6.38;;;10.80;99.90;;;;;;5061834;28;20080;-70
2022/10/09 08:58:33;;;;;;;12.45;5.90;;;10.90;99.90;;;;;;5046670;28;20496;-70
2022/10/09 09:01:18;;;;;;;10.90;5.45;;;11.00;99.90;;;;;;5066070;28;20095;-71
2022/10/09 09:04:08;;;;;;;10.48;5.13;;;11.10;99.90;;;;;;5056934;28;20053;-71
2022/10/09 09:06:40;;;;;;;14.45;6.05;;;11.10;99.90;;;;;;5049950;28;20830;-71
2022/10/09 09:09:12;;;;;;;12.98;5.53;;;11.30;99.90;;;;;;5052523;28;20045;-70
2022/10/09 09:11:49;;;;;;;11.07;4.28;;;11.40;99.90;;;;;;5065844;28;20123;-70
2022/10/09 09:14:37;;;;;;;10.45;3.30;;;11.50;99.90;;;;;;5063830;28;20036;-70
2022/10/09 09:17:18;;;;;;;8.98;2.90;;;11.60;99.90;;;;;;5034807;28;21082;-70
2022/10/09 09:19:58;;;;;;;14.53;3.67;;;11.70;99.90;;;;;;5055216;28;20048;-70
2022/10/09 09:22:25;;;;;;;10.70;3.20;;;11.70;99.90;;;;;;5061320;28;20366;-70
2022/10/09 09:24:53;;;;;;;12.88;3.28;;;11.80;99.90;;;;;;5066318;28;20163;-70
2022/10/09 09:27:29;;;;;;;7.88;2.58;;;11.80;99.90;;;;;;5045599;28;20049;-70
2022/10/09 09:30:32;;;;;;;8.77;2.80;;;11.90;99.90;;;;;;5073499;28;20123;-71
2022/10/09 09:33:10;;;;;;;10.07;2.60;;;12.10;99.90;;;;;;5060840;28;20040;-70
2022/10/09 09:35:48;;;;;;;8.60;2.80;;;12.20;99.90;;;;;;5063887;28;20060;-70
2022/10/09 09:38:14;;;;;;;6.68;2.20;;;12.40;99.90;;;;;;5042866;28;20131;-70
2022/10/09 09:40:41;;;;;;;6.28;2.35;;;12.40;99.90;;;;;;5064911;28;20107;-70
2022/10/09 09:43:24;;;;;;;7.55;2.78;;;12.50;99.90;;;;;;5061169;28;20201;-69
2022/10/09 09:45:58;;;;;;;9.85;2.28;;;12.50;99.90;;;;;;5067257;28;20048;-70
2022/10/09 09:48:29;;;;;;;11.80;2.55;;;12.60;99.90;;;;;;5049704;28;20438;-70
2022/10/09 09:50:56;;;;;;;8.00;2.28;;;12.70;99.90;;;;;;5065703;28;20131;-71
2022/10/09 09:53:48;;;;;;;8.27;2.40;;;12.70;99.90;;;;;;5061965;28;20479;-70
2022/10/09 09:56:15;;;;;;;9.20;2.72;;;13.00;99.90;;;;;;5056276;28;20135;-70
2022/10/09 09:58:46;;;;;;;7.55;1.92;;;12.90;99.90;;;;;;5057569;28;20040;-71
2022/10/09 10:01:31;;;;;;;6.20;2.25;;;12.90;99.90;;;;;;5066142;28;20045;-70
2022/10/09 10:03:59;;;;;;;10.98;2.33;;;13.10;99.90;;;;;;5062448;28;20051;-71
2022/10/09 10:06:42;;;;;;;7.53;3.20;;;13.00;99.90;;;;;;5050112;28;20080;-71
2022/10/09 10:09:16;;;;;;;33.28;13.70;;;13.00;99.90;;;;;;5049300;28;20488;-70
2022/10/09 10:12:00;;;;;;;16.05;6.18;;;13.10;99.90;;;;;;5053513;28;20063;-70
2022/10/09 10:14:26;;;;;;;13.77;5.70;;;13.10;99.90;;;;;;5054597;28;20068;-70
2022/10/09 10:16:55;;;;;;;8.82;2.85;;;13.10;99.90;;;;;;5041659;28;20567;-70
2022/10/09 10:19:29;;;;;;;13.85;4.45;;;13.10;99.90;;;;;;5064859;28;20044;-70
2022/10/09 10:22:01;;;;;;;7.57;2.55;;;13.10;99.90;;;;;;5077051;28;20058;-70
2022/10/09 10:24:34;;;;;;;10.02;2.50;;;13.20;99.90;;;;;;5074397;28;20499;-70
2022/10/09 10:27:24;;;;;;;9.38;2.15;;;13.30;99.90;;;;;;5062704;28;20089;-71
2022/10/09 10:29:54;;;;;;;12.32;2.30;;;13.40;99.90;;;;;;5057630;28;20048;-70
2022/10/09 10:32:20;;;;;;;7.93;1.70;;;13.40;99.90;;;;;;5065183;28;20335;-70
2022/10/09 10:34:54;;;;;;;7.72;1.85;;;13.60;99.90;;;;;;5065808;28;20086;-70
2022/10/09 10:37:27;;;;;;;7.00;1.83;;;13.70;99.90;;;;;;5037261;28;20052;-70
2022/10/09 10:40:13;;;;;;;7.60;1.80;;;13.80;99.90;;;;;;5066113;28;20376;-70
2022/10/09 10:42:59;;;;;;;8.13;1.88;;;13.80;99.90;;;;;;5061619;28;20143;-70
2022/10/09 10:45:53;;;;;;;6.47;1.35;;;13.70;99.90;;;;;;5069023;28;20090;-71
2022/10/09 10:48:31;;;;;;;7.43;1.50;;;13.80;99.90;;;;;;5038068;28;20052;-70
2022/10/09 10:51:34;;;;;;;7.15;1.65;;;14.10;99.90;;;;;;5064786;28;20044;-70
2022/10/09 10:54:22;;;;;;;7.82;1.75;;;13.90;99.90;;;;;;5066328;28;20060;-71
2022/10/09 10:57:03;;;;;;;5.05;1.48;;;14.00;99.90;;;;;;5052153;28;20507;-70
2022/10/09 10:59:36;;;;;;;5.90;1.60;;;14.00;99.90;;;;;;5067279;28;20472;-70
2022/10/09 11:02:16;;;;;;;7.28;1.38;;;13.80;99.90;;;;;;5068047;28;20048;-75
2022/10/09 11:05:17;;;;;;;6.43;1.35;;;14.00;99.90;;;;;;5068908;28;20435;-70
2022/10/09 11:07:53;;;;;;;4.43;1.02;;;14.00;99.90;;;;;;5032298;28;20048;-70
2022/10/09 11:10:29;;;;;;;5.63;1.38;;;14.10;99.90;;;;;;5053092;28;20055;-70
2022/10/09 11:12:58;;;;;;;8.65;1.45;;;14.00;99.90;;;;;;5067176;28;20408;-71
2022/10/09 11:15:50;;;;;;;6.07;1.30;;;14.10;99.90;;;;;;5067114;28;20048;-71
2022/10/09 11:18:53;;;;;;;6.38;1.58;;;14.30;99.90;;;;;;5065875;28;20069;-70
2022/10/09 11:21:53;;;;;;;4.43;1.20;;;14.30;99.90;;;;;;5063668;28;20071;-71
2022/10/09 11:24:56;;;;;;;6.75;1.45;;;14.30;99.90;;;;;;5054803;28;20040;-70
2022/10/09 11:27:41;;;;;;;6.95;1.55;;;14.40;99.90;;;;;;5049887;28;20084;-70
2022/10/09 11:30:12;;;;;;;5.20;1.25;;;14.30;99.90;;;;;;5055960;28;20051;-70
2022/10/09 11:32:59;;;;;;;6.20;1.50;;;14.40;99.90;;;;;;5066527;28;20527;-70
2022/10/09 11:35:36;;;;;;;8.73;1.58;;;14.30;99.90;;;;;;5064945;28;20057;-71
2022/10/09 11:38:06;;;;;;;7.85;1.30;;;14.60;99.90;;;;;;5052803;28;20114;-69
2022/10/09 11:40:38;;;;;;;6.90;1.05;;;14.60;99.90;;;;;;5068073;28;20091;-70
2022/10/09 11:43:22;;;;;;;7.18;1.50;;;14.50;99.90;;;;;;5065731;28;20617;-70
2022/10/09 11:46:06;;;;;;;7.50;1.13;;;14.60;99.90;;;;;;5070141;28;20048;-70
2022/10/09 11:48:35;;;;;;;7.53;1.05;;;14.50;99.90;;;;;;5056180;28;20054;-70
2022/10/09 11:51:17;;;;;;;5.25;1.00;;;14.60;99.90;;;;;;5050804;28;20510;-70
2022/10/09 11:53:44;;;;;;;6.18;1.02;;;14.50;99.90;;;;;;5067152;28;20057;-70
2022/10/09 11:56:22;;;;;;;5.80;1.35;;;14.50;99.90;;;;;;5057483;28;20045;-71
2022/10/09 11:59:05;;;;;;;5.15;1.02;;;14.60;99.90;;;;;;5052711;28;20048;-70
2022/10/09 12:01:33;;;;;;;7.00;1.20;;;14.70;99.90;;;;;;5065519;28;20066;-70
2022/10/09 12:04:23;;;;;;;5.80;1.08;;;14.80;99.90;;;;;;5065626;28;20158;-71
2022/10/09 12:07:06;;;;;;;8.48;1.30;;;15.00;99.90;;;;;;5051339;28;20428;-70
2022/10/09 12:09:56;;;;;;;5.90;1.30;;;15.10;99.90;;;;;;5066168;28;20047;-71
2022/10/09 12:12:22;;;;;;;8.30;1.45;;;14.90;99.90;;;;;;5066661;28;20070;-70
2022/10/09 12:14:50;;;;;;;5.57;1.50;;;15.10;99.90;;;;;;5067380;28;20584;-70
2022/10/09 12:17:33;;;;;;;7.15;1.25;;;15.00;99.90;;;;;;5051759;28;20044;-70
2022/10/09 12:20:17;;;;;;;8.30;1.65;;;14.90;99.90;;;;;;5065097;28;20488;-70
2022/10/09 12:22:56;;;;;;;7.82;1.60;;;14.70;99.90;;;;;;5065652;28;20040;-71
2022/10/09 12:25:31;;;;;;;7.93;1.50;;;14.80;99.90;;;;;;5065322;28;20510;-71
2022/10/09 12:27:59;;;;;;;11.20;3.85;;;14.70;99.90;;;;;;5051801;28;21008;-70
2022/10/09 12:30:35;;;;;;;14.55;5.45;;;14.90;99.90;;;;;;5068017;28;20154;-71
2022/10/09 12:33:13;;;;;;;9.63;2.10;;;14.90;99.90;;;;;;5067298;28;20049;-70
2022/10/09 12:35:44;;;;;;;8.00;1.50;;;14.90;99.90;;;;;;5066904;28;20121;-70
2022/10/09 12:38:27;;;;;;;9.27;1.70;;;14.90;99.90;;;;;;5049985;28;20428;-70
2022/10/09 12:40:56;;;;;;;6.80;1.38;;;15.00;99.90;;;;;;5064339;28;20870;-70
2022/10/09 12:43:22;;;;;;;4.60;1.08;;;15.00;99.90;;;;;;5044782;28;20072;-70
2022/10/09 12:45:50;;;;;;;6.20;1.83;;;15.00;99.90;;;;;;5065637;28;20087;-70
2022/10/09 12:48:21;;;;;;;4.85;1.75;;;14.90;99.90;;;;;;5052455;28;20047;-70
2022/10/09 12:50:48;;;;;;;10.18;4.45;;;14.80;99.90;;;;;;5063018;28;20079;-70
2022/10/09 12:53:20;;;;;;;10.70;3.10;;;14.90;99.90;;;;;;5066035;28;20052;-71
2022/10/09 12:55:53;;;;;;;13.32;6.03;;;15.00;99.90;;;;;;5066379;28;20082;-70
2022/10/09 12:58:26;;;;;;;6.60;1.65;;;15.00;99.90;;;;;;5053198;28;20468;-70
2022/10/09 13:00:58;;;;;;;7.47;2.35;;;14.90;99.90;;;;;;5062697;28;20080;-70
2022/10/09 13:03:33;;;;;;;7.00;2.08;;;15.00;99.90;;;;;;5062139;28;20045;-70
2022/10/09 13:06:00;;;;;;;5.72;1.98;;;14.80;99.90;;;;;;5064035;28;20059;-70